Time;durP1;ratioP1;P1;durP2;ratioP2;P2;SDS_P1;SDS_P2;PMS_P1;PMS_P2;Temp;Humidity;BMP_temperature;BMP_pressure;BME280_temperature;BME280_humidity;BME280_pressure;Samples;Min_cycle;Max_cycle;Signal;HPM_P1;HPM_P2
2022/09/14 00:00:48;;;;;;;7.80;1.60;;;14.00;99.90;;;;;;7392252;19;20490;-79
2022/09/14 00:03:15;;;;;;;6.10;1.45;;;14.00;99.90;;;;;;7391892;19;20019;-79
2022/09/14 00:05:41;;;;;;;5.72;1.65;;;14.00;99.90;;;;;;7399910;19;20026;-79
2022/09/14 00:08:07;;;;;;;6.90;1.50;;;14.00;99.90;;;;;;7400724;19;20025;-79
2022/09/14 00:10:36;;;;;;;4.47;1.30;;;14.00;99.90;;;;;;7397898;19;20105;-79
2022/09/14 00:13:02;;;;;;;8.30;1.50;;;13.90;99.90;;;;;;7398367;19;20021;-79
2022/09/14 00:15:28;;;;;;;6.60;1.42;;;13.90;99.90;;;;;;7400835;19;20023;-79
2022/09/14 00:17:54;;;;;;;5.70;1.42;;;13.90;99.90;;;;;;7394649;19;20019;-79
2022/09/14 00:20:20;;;;;;;5.00;1.42;;;13.90;99.90;;;;;;7400677;19;20031;-79
2022/09/14 00:22:45;;;;;;;5.57;1.40;;;13.90;99.90;;;;;;7399687;19;20014;-79
2022/09/14 00:25:11;;;;;;;4.53;1.38;;;13.80;99.90;;;;;;7400138;19;20010;-79
2022/09/14 00:27:38;;;;;;;5.90;1.60;;;13.80;99.90;;;;;;7398936;19;20010;-79
2022/09/14 00:30:05;;;;;;;9.57;1.90;;;13.80;99.90;;;;;;7399527;19;20382;-79
2022/09/14 00:32:31;;;;;;;5.88;1.50;;;13.80;99.90;;;;;;7400125;19;20018;-79
2022/09/14 00:34:56;;;;;;;4.38;1.50;;;13.90;99.90;;;;;;7397490;19;20014;-79
2022/09/14 00:37:23;;;;;;;4.80;1.50;;;13.90;99.90;;;;;;7397796;19;20015;-79
2022/09/14 00:39:49;;;;;;;7.63;1.88;;;14.00;99.90;;;;;;7398529;19;20109;-79
2022/09/14 00:42:18;;;;;;;7.32;1.80;;;14.00;99.90;;;;;;7399662;19;20018;-79
2022/09/14 00:44:47;;;;;;;6.55;1.50;;;14.00;99.90;;;;;;7399709;19;20018;-79
2022/09/14 00:47:15;;;;;;;8.07;1.63;;;13.90;99.90;;;;;;7397541;19;20044;-79
2022/09/14 00:49:42;;;;;;;7.40;1.88;;;14.00;99.90;;;;;;7400372;19;20010;-79
2022/09/14 00:52:22;;;;;;;9.50;1.67;;;14.00;99.90;;;;;;7397719;19;20023;-79
2022/09/14 00:54:52;;;;;;;5.65;1.70;;;14.00;99.90;;;;;;7397211;19;20018;-79
2022/09/14 00:57:19;;;;;;;7.30;1.52;;;14.00;99.90;;;;;;7397315;19;20022;-79
2022/09/14 00:59:48;;;;;;;7.60;1.80;;;13.90;99.90;;;;;;7397307;19;20501;-78
2022/09/14 01:02:14;;;;;;;6.50;1.33;;;13.90;99.90;;;;;;7399065;19;20463;-79
2022/09/14 01:04:41;;;;;;;8.10;2.00;;;13.90;99.90;;;;;;7397573;19;20021;-79
2022/09/14 01:07:44;;;;;;;7.93;1.60;;;13.80;99.90;;;;;;7398534;19;20095;-79
2022/09/14 01:10:26;;;;;;;8.70;1.80;;;13.80;99.90;;;;;;7399149;19;20010;-79
2022/09/14 01:13:21;;;;;;;4.78;1.48;;;13.70;99.90;;;;;;7398392;19;20029;-79
2022/09/14 01:16:06;;;;;;;6.90;1.90;;;13.70;99.90;;;;;;7399803;19;20463;-79
2022/09/14 01:18:36;;;;;;;9.50;2.40;;;13.60;99.90;;;;;;7396054;19;20031;-79
2022/09/14 01:21:37;;;;;;;6.20;1.88;;;13.70;99.90;;;;;;7399796;19;20018;-79
2022/09/14 01:24:23;;;;;;;8.07;2.10;;;13.60;99.90;;;;;;7395142;19;20427;-79
2022/09/14 01:27:17;;;;;;;5.03;1.70;;;13.60;99.90;;;;;;7396518;19;20376;-78
2022/09/14 01:29:49;;;;;;;6.93;1.83;;;13.60;99.90;;;;;;7396487;19;20018;-79
2022/09/14 01:32:26;;;;;;;5.78;1.52;;;13.60;99.90;;;;;;7398307;19;20014;-79
2022/09/14 01:35:19;;;;;;;6.25;1.80;;;13.60;99.90;;;;;;7396877;19;20042;-79
2022/09/14 01:37:54;;;;;;;7.20;1.90;;;13.50;99.90;;;;;;7396893;19;20542;-79
2022/09/14 01:40:35;;;;;;;8.40;1.92;;;13.50;99.90;;;;;;7395625;19;20014;-79
2022/09/14 01:43:09;;;;;;;8.73;2.38;;;13.50;99.90;;;;;;7395644;19;20404;-79
2022/09/14 01:45:41;;;;;;;8.07;2.20;;;13.40;99.90;;;;;;7397869;19;20011;-79
2022/09/14 01:48:09;;;;;;;6.50;2.05;;;13.40;99.90;;;;;;7397107;19;20017;-79
2022/09/14 01:50:42;;;;;;;7.82;2.40;;;13.50;99.90;;;;;;7395001;19;20491;-79
2022/09/14 01:53:36;;;;;;;7.25;1.80;;;13.60;99.90;;;;;;7397129;19;20014;-79
2022/09/14 01:56:19;;;;;;;8.02;2.00;;;13.60;99.90;;;;;;7398126;19;20494;-79
2022/09/14 01:59:02;;;;;;;7.43;2.13;;;13.70;99.90;;;;;;7397229;19;20475;-78
2022/09/14 02:01:53;;;;;;;8.13;2.00;;;13.70;99.90;;;;;;7398407;19;20025;-79
2022/09/14 02:04:48;;;;;;;6.93;2.30;;;13.70;99.90;;;;;;7398001;19;20048;-79
2022/09/14 02:07:14;;;;;;;8.10;2.20;;;13.80;99.90;;;;;;7393571;19;20037;-78
2022/09/14 02:09:41;;;;;;;6.07;1.95;;;13.80;99.90;;;;;;7396151;19;20018;-78
2022/09/14 02:12:07;;;;;;;6.63;2.25;;;13.80;99.90;;;;;;7395344;19;20022;-79
2022/09/14 02:14:33;;;;;;;9.30;2.03;;;13.80;99.90;;;;;;7397042;19;20533;-79
2022/09/14 02:16:59;;;;;;;10.07;2.53;;;13.80;99.90;;;;;;7392535;19;20037;-79
2022/09/14 02:19:28;;;;;;;7.57;2.03;;;13.80;99.90;;;;;;7393036;19;20071;-79
2022/09/14 02:21:54;;;;;;;6.88;1.70;;;13.80;99.90;;;;;;7393855;19;20018;-79
2022/09/14 02:24:20;;;;;;;8.43;1.70;;;13.80;99.90;;;;;;7394232;19;20021;-79
2022/09/14 02:26:50;;;;;;;6.57;1.73;;;13.80;99.90;;;;;;7394958;19;20018;-79
2022/09/14 02:29:16;;;;;;;5.78;1.60;;;13.80;99.90;;;;;;7397309;19;20018;-79
2022/09/14 02:32:01;;;;;;;4.85;1.80;;;13.80;99.90;;;;;;7395417;19;20021;-79
2022/09/14 02:34:37;;;;;;;5.57;1.77;;;13.80;99.90;;;;;;7395010;19;20418;-79
2022/09/14 02:37:25;;;;;;;7.95;2.38;;;13.80;99.90;;;;;;7395045;19;20514;-79
2022/09/14 02:40:14;;;;;;;8.38;2.08;;;13.70;99.90;;;;;;7394376;19;20385;-79
2022/09/14 02:42:40;;;;;;;8.80;2.08;;;13.70;99.90;;;;;;7395995;19;20025;-79
2022/09/14 02:45:17;;;;;;;7.95;2.13;;;13.70;99.90;;;;;;7396106;19;20010;-79
2022/09/14 02:48:07;;;;;;;5.22;2.25;;;13.70;99.90;;;;;;7395449;19;20035;-79
2022/09/14 02:50:57;;;;;;;5.90;1.95;;;13.70;99.90;;;;;;7394596;19;20018;-79
2022/09/14 02:53:34;;;;;;;9.27;2.60;;;13.70;99.90;;;;;;7392029;19;20006;-79
2022/09/14 02:56:04;;;;;;;7.53;2.45;;;13.70;99.90;;;;;;7395595;19;20032;-80
2022/09/14 02:58:40;;;;;;;9.05;3.00;;;13.70;99.90;;;;;;7393498;19;20024;-79
2022/09/14 03:01:09;;;;;;;9.20;2.97;;;13.70;99.90;;;;;;7393484;19;20018;-79
2022/09/14 03:03:34;;;;;;;8.23;2.85;;;13.70;99.90;;;;;;7394025;19;20070;-79
2022/09/14 03:06:01;;;;;;;9.80;2.78;;;13.70;99.90;;;;;;7397810;19;20014;-78
2022/09/14 03:08:27;;;;;;;9.02;2.90;;;13.70;99.90;;;;;;7396240;19;20021;-79
2022/09/14 03:10:54;;;;;;;9.18;2.78;;;13.80;99.90;;;;;;7395268;19;20022;-79
2022/09/14 03:13:20;;;;;;;6.95;2.80;;;13.80;99.90;;;;;;7392637;19;20476;-79
2022/09/14 03:15:46;;;;;;;8.48;3.03;;;13.80;99.90;;;;;;7394992;19;20525;-79
2022/09/14 03:18:12;;;;;;;9.52;3.08;;;13.80;99.90;;;;;;7391822;19;20110;-79
2022/09/14 03:20:38;;;;;;;8.40;2.90;;;13.80;99.90;;;;;;7393728;19;20038;-79
2022/09/14 03:23:06;;;;;;;6.97;2.40;;;13.80;99.90;;;;;;7392344;19;20007;-80
2022/09/14 03:25:39;;;;;;;9.18;2.97;;;13.90;99.90;;;;;;7392385;19;20348;-79
2022/09/14 03:28:05;;;;;;;7.32;2.67;;;13.80;99.90;;;;;;7393046;19;20031;-79
2022/09/14 03:30:32;;;;;;;8.18;2.78;;;13.90;99.90;;;;;;7393629;19;20078;-79
2022/09/14 03:32:58;;;;;;;9.48;2.78;;;13.90;99.90;;;;;;7395463;19;20022;-79
2022/09/14 03:35:26;;;;;;;9.07;2.90;;;13.90;99.90;;;;;;7393096;19;20025;-79
2022/09/14 03:37:52;;;;;;;6.32;2.70;;;13.90;99.90;;;;;;7392053;19;20042;-79
2022/09/14 03:40:18;;;;;;;7.00;2.60;;;13.90;99.90;;;;;;7400007;19;20467;-79
2022/09/14 03:42:45;;;;;;;7.50;2.60;;;13.90;99.90;;;;;;7401316;19;20015;-79
2022/09/14 03:45:13;;;;;;;8.77;3.08;;;13.90;99.90;;;;;;7400205;19;20014;-79
2022/09/14 03:47:40;;;;;;;8.82;2.50;;;13.90;99.90;;;;;;7400121;19;20014;-79
2022/09/14 03:50:07;;;;;;;6.90;2.70;;;13.90;99.90;;;;;;7400118;19;20097;-79
2022/09/14 03:52:34;;;;;;;6.15;2.50;;;13.90;99.90;;;;;;7400890;19;20022;-79
2022/09/14 03:55:00;;;;;;;7.95;2.33;;;13.90;99.90;;;;;;7398595;19;20468;-79
2022/09/14 03:57:26;;;;;;;8.63;2.80;;;14.00;99.90;;;;;;7403375;19;20018;-79
2022/09/14 03:59:52;;;;;;;7.25;2.47;;;14.00;99.90;;;;;;7401044;19;20501;-79
2022/09/14 04:02:18;;;;;;;8.80;2.83;;;14.00;99.90;;;;;;7398763;19;20475;-79
2022/09/14 04:04:47;;;;;;;6.30;2.55;;;13.90;99.90;;;;;;7399182;19;20011;-78
2022/09/14 04:07:14;;;;;;;7.35;2.83;;;14.00;99.90;;;;;;7399752;19;20018;-78
2022/09/14 04:09:41;;;;;;;7.75;2.58;;;14.00;99.90;;;;;;7400753;19;20020;-78
2022/09/14 04:12:07;;;;;;;6.90;2.50;;;14.00;99.90;;;;;;7398485;19;20017;-78
2022/09/14 04:14:33;;;;;;;5.55;2.38;;;14.00;99.90;;;;;;7398889;19;20026;-79
2022/09/14 04:16:59;;;;;;;6.00;2.47;;;14.00;99.90;;;;;;7397767;19;20480;-78
2022/09/14 04:19:24;;;;;;;7.97;2.53;;;14.00;99.90;;;;;;7399612;19;20071;-79
2022/09/14 04:21:50;;;;;;;7.40;2.50;;;13.90;99.90;;;;;;7400080;19;20033;-78
2022/09/14 04:24:17;;;;;;;8.85;2.40;;;13.90;99.90;;;;;;7399937;19;20467;-79
2022/09/14 04:26:44;;;;;;;7.78;2.50;;;13.90;99.90;;;;;;7397507;19;20019;-79
2022/09/14 04:29:11;;;;;;;8.18;2.90;;;13.90;99.90;;;;;;7402276;19;20018;-79
2022/09/14 04:31:37;;;;;;;10.02;2.65;;;13.90;99.90;;;;;;7397983;19;20516;-79
2022/09/14 04:34:04;;;;;;;6.43;2.40;;;13.90;99.90;;;;;;7399577;19;20011;-79
2022/09/14 04:36:30;;;;;;;6.63;2.50;;;13.90;99.90;;;;;;7399853;19;20026;-79
2022/09/14 04:38:59;;;;;;;6.13;2.47;;;13.90;99.90;;;;;;7397832;19;20029;-79
2022/09/14 04:41:25;;;;;;;7.38;2.45;;;13.90;99.90;;;;;;7397986;19;20014;-79
2022/09/14 04:43:52;;;;;;;5.55;2.25;;;13.90;99.90;;;;;;7399637;19;20098;-79
2022/09/14 04:46:23;;;;;;;7.88;2.38;;;13.90;99.90;;;;;;7396953;19;20077;-79
2022/09/14 04:48:50;;;;;;;6.47;2.47;;;14.00;99.90;;;;;;7400361;19;20014;-79
2022/09/14 04:51:27;;;;;;;6.00;2.70;;;14.00;99.90;;;;;;7396706;19;20014;-79
2022/09/14 04:54:01;;;;;;;10.38;2.97;;;14.00;99.90;;;;;;7399701;19;20490;-79
2022/09/14 04:56:30;;;;;;;5.32;2.28;;;14.00;99.90;;;;;;7397077;19;20527;-79
2022/09/14 04:58:58;;;;;;;8.23;2.70;;;14.00;99.90;;;;;;7394850;19;20022;-79
2022/09/14 05:01:27;;;;;;;7.10;2.45;;;14.00;99.90;;;;;;7394980;19;20475;-79
2022/09/14 05:03:53;;;;;;;7.50;2.42;;;14.00;99.90;;;;;;7400470;19;20010;-79
2022/09/14 05:06:24;;;;;;;6.13;2.35;;;14.00;99.90;;;;;;7396692;19;20014;-78
2022/09/14 05:08:51;;;;;;;8.98;2.72;;;14.00;99.90;;;;;;7398386;19;20014;-79
2022/09/14 05:11:20;;;;;;;6.05;2.35;;;14.00;99.90;;;;;;7398864;19;20018;-79
2022/09/14 05:13:46;;;;;;;7.60;2.72;;;14.00;99.90;;;;;;7398156;19;20018;-79
2022/09/14 05:16:17;;;;;;;6.93;2.53;;;14.00;99.90;;;;;;7395321;19;20102;-79
2022/09/14 05:18:44;;;;;;;5.93;2.30;;;14.10;99.90;;;;;;7395322;19;20019;-79
2022/09/14 05:21:12;;;;;;;4.85;2.17;;;14.10;99.90;;;;;;7399042;19;20015;-79
2022/09/14 05:23:38;;;;;;;7.22;2.55;;;14.10;99.90;;;;;;7398668;19;20011;-79
2022/09/14 05:26:05;;;;;;;5.40;2.30;;;14.10;99.90;;;;;;7395832;19;20018;-79
2022/09/14 05:28:33;;;;;;;10.32;2.35;;;14.10;99.90;;;;;;7397193;19;20019;-79
2022/09/14 05:31:02;;;;;;;5.68;2.53;;;14.10;99.90;;;;;;7397760;19;20032;-79
2022/09/14 05:33:28;;;;;;;7.22;2.50;;;14.20;99.90;;;;;;7398813;19;20025;-80
2022/09/14 05:36:02;;;;;;;5.90;2.10;;;14.20;99.90;;;;;;7396128;19;20081;-80
2022/09/14 05:38:29;;;;;;;5.85;2.38;;;14.20;99.90;;;;;;7396400;19;20081;-84
2022/09/14 05:40:55;;;;;;;6.78;2.45;;;14.20;99.90;;;;;;7396199;19;20022;-80
2022/09/14 05:43:22;;;;;;;7.53;2.20;;;14.20;99.90;;;;;;7398238;19;20015;-90
2022/09/14 05:45:48;;;;;;;8.15;2.42;;;14.30;99.90;;;;;;7396508;19;20404;-80
2022/09/14 05:48:14;;;;;;;6.45;2.58;;;14.30;99.90;;;;;;7395255;19;20030;-80
2022/09/14 05:50:40;;;;;;;7.13;2.20;;;14.30;99.90;;;;;;7394709;19;20051;-79
2022/09/14 05:53:06;;;;;;;7.28;2.50;;;14.40;99.90;;;;;;7397894;19;20018;-79
2022/09/14 05:55:32;;;;;;;9.93;2.50;;;14.40;99.90;;;;;;7399655;19;20015;-79
2022/09/14 05:57:58;;;;;;;8.18;2.17;;;14.40;99.90;;;;;;7393718;19;20010;-79
2022/09/14 06:00:24;;;;;;;7.40;2.95;;;14.50;99.90;;;;;;7394358;19;20494;-78
2022/09/14 06:02:53;;;;;;;8.90;2.10;;;14.50;99.90;;;;;;7393488;19;20539;-79
2022/09/14 06:05:20;;;;;;;9.60;2.30;;;14.50;99.90;;;;;;7394805;19;20360;-82
2022/09/14 06:07:51;;;;;;;7.35;2.15;;;14.60;99.90;;;;;;7397900;19;20022;-81
2022/09/14 06:10:18;;;;;;;5.97;2.10;;;14.60;99.90;;;;;;7398791;19;20018;-81
2022/09/14 06:12:44;;;;;;;6.25;2.30;;;14.70;99.90;;;;;;7396766;19;20031;-81
2022/09/14 06:15:10;;;;;;;8.55;2.42;;;14.80;99.90;;;;;;7393479;19;20491;-81
2022/09/14 06:17:36;;;;;;;7.05;2.60;;;14.80;99.90;;;;;;7393076;19;20074;-81
2022/09/14 06:20:04;;;;;;;6.10;2.67;;;14.90;99.90;;;;;;7394998;19;20014;-81
2022/09/14 06:22:30;;;;;;;8.80;2.50;;;14.90;99.90;;;;;;7394684;19;20028;-81
2022/09/14 06:24:56;;;;;;;6.10;2.25;;;14.90;99.90;;;;;;7395415;19;20015;-81
2022/09/14 06:27:22;;;;;;;7.28;2.45;;;15.00;99.90;;;;;;7394537;19;20017;-81
2022/09/14 06:29:51;;;;;;;8.02;2.40;;;15.00;99.90;;;;;;7392929;19;20590;-81
2022/09/14 06:32:18;;;;;;;8.05;2.42;;;15.00;99.90;;;;;;7396490;19;20039;-81
2022/09/14 06:34:44;;;;;;;5.38;2.53;;;15.10;99.90;;;;;;7395057;19;20074;-82
2022/09/14 06:37:11;;;;;;;7.88;2.50;;;15.10;99.90;;;;;;7393580;19;20025;-81
2022/09/14 06:39:37;;;;;;;7.55;2.50;;;15.20;99.90;;;;;;7397923;19;20018;-81
2022/09/14 06:42:03;;;;;;;7.68;2.22;;;15.30;99.90;;;;;;7395041;19;20036;-80
2022/09/14 06:44:29;;;;;;;11.82;3.60;;;15.40;99.90;;;;;;7391141;19;20019;-81
2022/09/14 06:46:54;;;;;;;11.05;2.97;;;15.50;99.90;;;;;;7393072;19;20359;-81
2022/09/14 06:49:22;;;;;;;8.27;2.60;;;15.60;99.90;;;;;;7393759;19;20006;-81
2022/09/14 06:51:49;;;;;;;7.18;2.30;;;15.60;99.90;;;;;;7395676;19;20018;-81
2022/09/14 06:54:16;;;;;;;9.10;2.60;;;15.70;99.90;;;;;;7392881;19;20550;-81
2022/09/14 06:56:44;;;;;;;7.47;2.63;;;15.70;99.90;;;;;;7391984;19;20010;-85
2022/09/14 06:59:12;;;;;;;5.35;2.40;;;15.70;99.90;;;;;;7392053;19;20011;-80
2022/09/14 07:01:38;;;;;;;8.48;2.55;;;15.80;99.90;;;;;;7397015;19;20014;-80
2022/09/14 07:04:05;;;;;;;9.88;2.30;;;15.90;99.90;;;;;;7393352;19;20351;-80
2022/09/14 07:06:37;;;;;;;5.55;2.10;;;16.00;99.90;;;;;;7393557;19;20007;-79
2022/09/14 07:09:04;;;;;;;8.05;2.33;;;16.10;99.90;;;;;;7394985;19;20028;-80
2022/09/14 07:11:31;;;;;;;6.18;2.25;;;16.30;99.90;;;;;;7394989;19;20032;-79
2022/09/14 07:13:57;;;;;;;9.65;2.20;;;16.40;99.90;;;;;;7394286;19;20014;-80
2022/09/14 07:16:24;;;;;;;10.68;2.05;;;16.40;99.90;;;;;;7391440;19;20369;-80
2022/09/14 07:18:58;;;;;;;10.45;2.17;;;16.50;99.90;;;;;;7390881;19;20086;-79
2022/09/14 07:21:24;;;;;;;5.55;1.60;;;16.50;99.90;;;;;;7392952;19;20483;-79
2022/09/14 07:23:51;;;;;;;8.23;1.90;;;16.50;99.90;;;;;;7393177;19;20041;-80
2022/09/14 07:26:19;;;;;;;4.65;1.20;;;16.60;99.90;;;;;;7393902;19;20014;-80
2022/09/14 07:28:49;;;;;;;7.82;1.50;;;16.70;99.90;;;;;;7392014;19;20084;-79
2022/09/14 07:31:32;;;;;;;5.30;1.40;;;16.70;99.90;;;;;;7392714;19;20006;-80
2022/09/14 07:34:03;;;;;;;4.85;1.27;;;16.70;99.90;;;;;;7392942;19;20011;-79
2022/09/14 07:36:31;;;;;;;8.25;1.92;;;16.80;99.90;;;;;;7393181;19;20024;-79
2022/09/14 07:38:57;;;;;;;6.50;1.13;;;16.80;99.90;;;;;;7392313;19;20014;-79
2022/09/14 07:41:25;;;;;;;5.00;1.30;;;16.80;99.90;;;;;;7392245;19;20006;-80
2022/09/14 07:43:54;;;;;;;7.00;1.42;;;16.80;99.90;;;;;;7395763;19;20094;-80
2022/09/14 07:46:21;;;;;;;5.40;1.13;;;16.90;99.90;;;;;;7392938;19;20019;-79
2022/09/14 07:48:48;;;;;;;4.47;0.88;;;17.00;99.90;;;;;;7396076;19;20062;-79
2022/09/14 07:51:14;;;;;;;5.22;1.00;;;17.10;99.90;;;;;;7391975;19;20043;-78
2022/09/14 07:53:41;;;;;;;4.95;0.95;;;17.10;99.90;;;;;;7392394;19;20015;-79
2022/09/14 07:56:09;;;;;;;5.50;0.90;;;17.20;99.90;;;;;;7394793;19;20015;-80
2022/09/14 07:58:36;;;;;;;4.32;1.00;;;17.30;99.90;;;;;;7393123;19;20019;-79
2022/09/14 08:01:07;;;;;;;5.47;1.30;;;17.40;99.90;;;;;;7395931;19;20014;-80
2022/09/14 08:03:35;;;;;;;3.05;0.70;;;17.50;99.90;;;;;;7396732;19;20483;-79
2022/09/14 08:06:04;;;;;;;6.32;0.85;;;17.50;99.90;;;;;;7392155;19;20953;-79
2022/09/14 08:08:31;;;;;;;7.80;1.00;;;17.60;99.90;;;;;;7393649;19;20488;-80
2022/09/14 08:11:19;;;;;;;4.35;1.10;;;17.60;99.90;;;;;;7393539;19;20095;-79
2022/09/14 08:13:51;;;;;;;8.65;1.25;;;17.70;99.90;;;;;;7392163;19;20524;-79
2022/09/14 08:16:18;;;;;;;5.95;1.05;;;17.80;99.90;;;;;;7392184;19;20772;-79
2022/09/14 08:18:44;;;;;;;6.05;1.00;;;18.00;99.90;;;;;;7392528;19;20078;-79
2022/09/14 08:21:13;;;;;;;7.07;1.15;;;18.20;99.90;;;;;;7391138;19;20491;-79
2022/09/14 08:23:41;;;;;;;5.28;1.13;;;18.20;99.90;;;;;;7389860;19;20014;-80
2022/09/14 08:26:20;;;;;;;9.80;3.08;;;18.10;99.90;;;;;;7397333;19;20353;-80
2022/09/14 08:28:47;;;;;;;8.70;1.33;;;18.00;99.90;;;;;;7399796;19;20018;-79
2022/09/14 08:31:23;;;;;;;9.52;1.10;;;18.00;99.90;;;;;;7398483;19;20021;-79
2022/09/14 08:33:58;;;;;;;6.28;1.23;;;17.90;99.90;;;;;;7400768;19;20007;-80
2022/09/14 08:36:30;;;;;;;5.63;1.17;;;17.90;99.90;;;;;;7398287;19;20405;-80
2022/09/14 08:38:56;;;;;;;4.88;1.08;;;17.90;99.90;;;;;;7398925;19;20010;-79
2022/09/14 08:41:37;;;;;;;6.53;1.42;;;17.90;99.90;;;;;;7397173;19;20038;-80
2022/09/14 08:44:24;;;;;;;9.30;1.98;;;17.90;99.90;;;;;;7397700;19;20022;-79
2022/09/14 08:47:01;;;;;;;6.55;1.20;;;18.00;99.90;;;;;;7396803;19;20082;-79
2022/09/14 08:49:47;;;;;;;10.55;2.10;;;18.00;99.90;;;;;;7399574;19;20082;-79
2022/09/14 08:52:31;;;;;;;7.78;1.90;;;18.10;99.90;;;;;;7399369;19;20137;-80
2022/09/14 08:55:16;;;;;;;7.57;1.45;;;18.20;99.90;;;;;;7399951;19;20014;-79
2022/09/14 08:57:54;;;;;;;5.82;1.50;;;18.20;99.90;;;;;;7399550;19;20018;-80
2022/09/14 09:00:23;;;;;;;6.90;1.77;;;18.20;99.90;;;;;;7398076;19;20014;-79
2022/09/14 09:03:08;;;;;;;7.13;1.58;;;18.30;99.90;;;;;;7396977;19;20490;-79
2022/09/14 09:05:39;;;;;;;7.70;1.80;;;18.30;99.90;;;;;;7398240;19;20021;-80
2022/09/14 09:08:30;;;;;;;5.55;1.42;;;18.40;99.90;;;;;;7400544;19;20547;-80
2022/09/14 09:10:59;;;;;;;14.13;2.40;;;18.50;99.90;;;;;;7401682;19;20363;-79
2022/09/14 09:13:30;;;;;;;8.27;2.17;;;18.50;99.90;;;;;;7397122;19;20065;-80
2022/09/14 09:16:05;;;;;;;7.55;1.98;;;18.60;99.90;;;;;;7396087;19;20012;-80
2022/09/14 09:19:00;;;;;;;11.43;1.50;;;18.70;99.90;;;;;;7395273;19;20002;-80
2022/09/14 09:21:46;;;;;;;9.32;1.55;;;18.80;99.90;;;;;;7397596;19;20015;-80
2022/09/14 09:24:28;;;;;;;7.35;0.98;;;18.80;99.90;;;;;;7398273;19;20010;-80
2022/09/14 09:26:54;;;;;;;11.32;1.13;;;18.80;99.90;;;;;;7395763;19;20020;-80
2022/09/14 09:29:21;;;;;;;8.23;1.45;;;18.80;99.90;;;;;;7396316;19;20018;-80
2022/09/14 09:31:51;;;;;;;8.10;1.60;;;18.70;99.90;;;;;;7396218;19;20489;-80
2022/09/14 09:34:28;;;;;;;5.50;1.50;;;18.80;99.90;;;;;;7396408;19;20018;-80
2022/09/14 09:36:55;;;;;;;7.00;1.27;;;19.00;99.90;;;;;;7395253;19;20019;-80
2022/09/14 09:39:22;;;;;;;9.70;1.63;;;19.20;99.90;;;;;;7399383;19;20086;-80
2022/09/14 09:42:14;;;;;;;10.70;1.30;;;19.50;99.90;;;;;;7398157;19;20015;-80
2022/09/14 09:44:53;;;;;;;6.60;1.17;;;19.90;99.90;;;;;;7393463;19;20022;-80
2022/09/14 09:47:34;;;;;;;6.35;1.15;;;20.00;99.90;;;;;;7396139;19;20107;-80
2022/09/14 09:50:14;;;;;;;5.53;1.17;;;20.20;99.90;;;;;;7397246;19;20014;-80
2022/09/14 09:52:52;;;;;;;9.18;1.55;;;20.40;99.90;;;;;;7395808;19;20018;-80
2022/09/14 09:55:25;;;;;;;6.13;0.90;;;20.60;99.90;;;;;;7394094;19;20048;-80
2022/09/14 09:57:53;;;;;;;6.70;1.20;;;20.70;99.90;;;;;;7393663;19;20022;-80
2022/09/14 10:00:31;;;;;;;9.13;1.38;;;20.80;99.90;;;;;;7395221;19;20026;-81
2022/09/14 10:02:57;;;;;;;5.38;1.25;;;21.10;99.90;;;;;;7393954;19;20022;-80
2022/09/14 10:05:27;;;;;;;4.85;1.00;;;21.30;99.90;;;;;;7396019;19;20372;-79
2022/09/14 10:08:06;;;;;;;8.10;1.50;;;21.40;99.90;;;;;;7399564;19;20022;-80
2022/09/14 10:10:34;;;;;;;7.72;1.13;;;21.30;99.90;;;;;;7395874;19;20018;-80
2022/09/14 10:13:03;;;;;;;7.70;1.25;;;21.20;99.90;;;;;;7395196;19;20023;-80
2022/09/14 10:15:31;;;;;;;7.53;1.30;;;21.20;99.90;;;;;;7394312;19;20502;-80
2022/09/14 10:18:20;;;;;;;6.97;1.00;;;20.90;99.90;;;;;;7392959;19;20082;-80
2022/09/14 10:20:52;;;;;;;7.35;1.45;;;20.80;99.90;;;;;;7395062;19;20018;-80
2022/09/14 10:23:18;;;;;;;6.97;1.47;;;20.70;99.90;;;;;;7399410;19;20021;-80
2022/09/14 10:25:49;;;;;;;7.28;1.52;;;20.60;99.90;;;;;;7394695;19;20006;-80
2022/09/14 10:28:30;;;;;;;4.28;0.90;;;20.60;99.90;;;;;;7394706;19;20007;-81
2022/09/14 10:31:17;;;;;;;5.05;0.90;;;20.60;99.90;;;;;;7398051;19;20018;-80
2022/09/14 10:33:52;;;;;;;4.47;1.30;;;20.40;99.90;;;;;;7398534;19;20014;-80
2022/09/14 10:36:24;;;;;;;4.97;1.17;;;20.50;99.90;;;;;;7394713;19;20010;-80
2022/09/14 10:38:51;;;;;;;6.68;1.40;;;20.50;99.90;;;;;;7394427;19;20026;-80
2022/09/14 10:41:36;;;;;;;3.40;0.95;;;20.40;99.90;;;;;;7394175;19;20015;-80
2022/09/14 10:44:09;;;;;;;8.15;1.63;;;20.40;99.90;;;;;;7393261;19;20018;-80
2022/09/14 10:47:03;;;;;;;8.93;1.40;;;20.50;99.90;;;;;;7392940;19;20014;-80
2022/09/14 10:49:40;;;;;;;12.00;2.10;;;20.30;99.90;;;;;;7395679;19;20022;-80
2022/09/14 10:52:37;;;;;;;9.52;1.10;;;20.20;99.90;;;;;;7392100;19;20428;-80
2022/09/14 10:55:33;;;;;;;4.93;1.02;;;20.10;99.90;;;;;;7394358;19;20690;-79
2022/09/14 10:58:23;;;;;;;5.60;1.25;;;20.10;99.90;;;;;;7395973;19;20018;-79
2022/09/14 11:01:10;;;;;;;4.47;1.33;;;20.20;99.90;;;;;;7392969;19;20015;-80
2022/09/14 11:03:52;;;;;;;5.57;0.95;;;20.20;99.90;;;;;;7391462;19;20014;-79
2022/09/14 11:06:39;;;;;;;6.65;1.27;;;20.30;99.90;;;;;;7396927;19;20368;-79
2022/09/14 11:09:16;;;;;;;6.00;0.90;;;20.40;99.90;;;;;;7393100;19;20014;-80
2022/09/14 11:11:58;;;;;;;5.72;0.75;;;20.30;99.90;;;;;;7393752;19;20020;-79
2022/09/14 11:14:55;;;;;;;3.30;1.00;;;20.30;99.90;;;;;;7397149;19;20035;-80
2022/09/14 11:17:35;;;;;;;9.38;2.10;;;20.00;99.90;;;;;;7390960;19;20023;-79
2022/09/14 11:20:25;;;;;;;6.68;1.52;;;20.10;99.90;;;;;;7391919;19;20013;-79
2022/09/14 11:23:18;;;;;;;6.57;1.50;;;20.20;99.90;;;;;;7393539;19;20145;-81
2022/09/14 11:25:46;;;;;;;7.72;1.60;;;20.20;99.90;;;;;;7394660;19;20973;-80
2022/09/14 11:28:27;;;;;;;6.05;1.40;;;20.30;99.90;;;;;;7396276;19;20475;-80
2022/09/14 11:31:00;;;;;;;4.30;1.40;;;20.20;99.90;;;;;;7393728;19;20015;-81
2022/09/14 11:33:42;;;;;;;7.85;1.48;;;20.30;99.90;;;;;;7393144;19;20018;-80
2022/09/14 11:36:12;;;;;;;9.57;1.48;;;20.40;99.90;;;;;;7392531;19;20014;-80
2022/09/14 11:38:47;;;;;;;8.00;1.40;;;20.50;99.90;;;;;;7390734;19;20375;-80
2022/09/14 11:41:32;;;;;;;9.05;1.33;;;20.70;99.90;;;;;;7395628;19;20014;-80
2022/09/14 11:44:25;;;;;;;6.88;1.50;;;20.90;99.90;;;;;;7395206;19;20022;-80
2022/09/14 11:47:12;;;;;;;7.07;1.30;;;20.90;99.90;;;;;;7391690;19;20082;-79
2022/09/14 11:49:49;;;;;;;8.85;1.20;;;20.90;99.90;;;;;;7392188;19;20014;-80
2022/09/14 11:52:25;;;;;;;12.20;1.45;;;20.80;99.90;;;;;;7391832;19;20017;-80
2022/09/14 11:54:51;;;;;;;6.53;1.40;;;20.70;99.90;;;;;;7392361;19;20011;-80
2022/09/14 11:57:24;;;;;;;5.25;1.30;;;20.80;99.90;;;;;;7393578;19;20030;-80
2022/09/14 11:59:56;;;;;;;8.77;1.38;;;20.90;99.90;;;;;;7396868;19;20015;-80
2022/09/14 12:02:21;;;;;;;5.90;1.15;;;21.10;99.90;;;;;;7398082;19;20035;-80
2022/09/14 12:05:11;;;;;;;8.32;1.55;;;21.30;99.90;;;;;;7400091;19;20666;-80
2022/09/14 12:07:46;;;;;;;10.23;2.38;;;21.40;99.90;;;;;;7399104;19;20118;-80
2022/09/14 12:10:16;;;;;;;8.18;1.45;;;21.30;99.90;;;;;;7399775;19;20022;-80
2022/09/14 12:12:47;;;;;;;3.80;1.10;;;21.40;99.90;;;;;;7399570;19;20046;-79
2022/09/14 12:15:28;;;;;;;7.35;1.23;;;21.40;99.90;;;;;;7399380;19;20019;-81
2022/09/14 12:18:06;;;;;;;8.07;1.50;;;21.50;99.90;;;;;;7396739;19;20011;-79
2022/09/14 12:20:32;;;;;;;8.40;1.10;;;21.60;99.90;;;;;;7398729;19;20024;-80
2022/09/14 12:23:36;;;;;;;10.82;1.55;;;21.70;99.90;;;;;;7398914;19;20011;-80
2022/09/14 12:26:05;;;;;;;;;;;21.70;99.90;;;;;;7398880;19;20014;-80
2022/09/14 12:28:33;;;;;;;6.28;1.20;;;21.90;99.90;;;;;;7398379;19;19926;-80
2022/09/14 12:31:01;;;;;;;7.28;1.30;;;21.90;99.90;;;;;;7401614;19;20015;-80
2022/09/14 12:33:34;;;;;;;7.72;1.27;;;22.00;99.90;;;;;;7398080;19;20034;-80
2022/09/14 12:36:00;;;;;;;5.97;1.30;;;22.10;99.90;;;;;;7399719;19;20383;-80
2022/09/14 12:38:29;;;;;;;5.40;1.27;;;22.20;99.90;;;;;;7395266;19;20094;-80
2022/09/14 12:40:55;;;;;;;4.80;1.25;;;22.50;99.90;;;;;;7400105;19;20354;-80
2022/09/14 12:43:33;;;;;;;6.43;1.30;;;22.60;99.90;;;;;;7398155;19;20472;-80
2022/09/14 12:46:20;;;;;;;6.25;1.15;;;22.80;99.90;;;;;;7397241;19;20033;-80
2022/09/14 12:48:47;;;;;;;6.30;1.38;;;23.00;99.80;;;;;;7396767;19;20024;-80
2022/09/14 12:51:29;;;;;;;6.68;1.10;;;22.90;99.60;;;;;;7399323;19;20010;-81
2022/09/14 12:53:59;;;;;;;5.22;1.00;;;22.70;99.40;;;;;;7399724;19;20015;-80
2022/09/14 12:56:50;;;;;;;7.80;1.40;;;22.60;99.00;;;;;;7399796;19;20033;-80
2022/09/14 12:59:35;;;;;;;5.43;1.15;;;22.50;99.30;;;;;;7400072;19;20010;-78
2022/09/14 13:02:23;;;;;;;6.40;1.38;;;22.50;99.70;;;;;;7399329;19;20022;-81
2022/09/14 13:04:53;;;;;;;3.85;1.15;;;22.50;99.80;;;;;;7400944;19;20018;-79
2022/09/14 13:07:20;;;;;;;5.22;1.25;;;22.20;99.70;;;;;;7395647;19;20450;-79
2022/09/14 13:09:52;;;;;;;4.93;0.98;;;22.10;99.90;;;;;;7396828;19;20018;-80
2022/09/14 13:12:30;;;;;;;6.95;1.48;;;21.30;99.90;;;;;;7395763;19;20026;-80